Fair Oaks, IN (47943)

1:00 PM CDT on September 05, 2015 (GMT -0500)
Roselawn | | Change Station
CLOSE
Current Station
Personal Weather Station
Location: De Motte, IN
Elevation: 666 ft
Nearby Weather Stations

Elev 666 ft 41.16 °N, 87.30 °W | Updated 36 seconds ago

Rain
Rain
71.4 °F
Feels Like 71.4 °F
N
4.3
Wind Variable Wind from ENE
Gusts 7.6 mph

Today
High -- | Low -- °F
--% Chance of Precip.
Yesterday
High -- | Low -- °F
Precip. -- in
6:19 AM 7:15 PM
Waning Gibbous, 46% visible
Pressure 30.17 in
Visibility 10.0 miles
Clouds Scattered Clouds 4600 ft
Mostly Cloudy 5000 ft
Mostly Cloudy 7000 ft
Dew Point 69 °F
Humidity 92%
Rainfall 0.00 in
Snow Depth Not available.
UV 5 out of 12
Pollen 8.70 out of 12
Air Quality Not available.
Flu Activity Not available.
METAR KRZL 051755Z AUTO 03008KT 10SM SCT046 BKN050 BKN070 22/21 A3017 RMK AO2 P0001 LTG DSNT N
Pressure 30.17 in
Visibility 10.0 miles
Clouds Scattered Clouds 4600 ft
Mostly Cloudy 5000 ft
Mostly Cloudy 7000 ft
Dew Point 69 °F
Humidity 92%
Rainfall 0.00 in
Snow Depth Not available.
UV 5 out of 12
Pollen 8.70 out of 12
Air Quality Not available.
Flu Activity Not available.
METAR KRZL 051755Z AUTO 03008KT 10SM SCT046 BKN050 BKN070 22/21 A3017 RMK AO2 P0001 LTG DSNT N

10-Day Weather Forecast

×

Almanac

Astronomy

Sep. 05, 2015 Rise Set
Actual Time
Civil Twilight
Nautical Twilight
Astronomical Twilight
Moon
Length of Visible Light
Length of Day
Tomorrow will be .
, % of the Moon is Illuminated

Today's Extremes

State Highs State Lows

Community

WunderPhotos

Upload Photos

1,852,510 photos uploaded!

WunderBlogs® & News

Nearby

Air Quality

  Air Quality AQ Index Pollutant
Not available.

Snow Depth

Station Depth Elevation

Earthquake Activity

City Distance Mag. Time & Date
Minimum magnitude displayed is 2.5.

Coastal Water Temperatures

Place Temperature

Stations

Nearby Weather Stations

Station Location Temp. Windchill Dew Point Humidity Wind Precip. Elev Updated Type